TA33 weather

Meyer Field
Rosharon, Texas, United States

Public forecast

Using degrees Fahrenheit for public forecast. Weather courtesy of forecast.io.

Closest aviation weather report (METAR) to Meyer Field

Closest report is Houston Southwest Airport, 12.1 nm (22.5 km) NE. Retrieved 2020/08/04 10:35 UTC (15 minutes ago):

KAXH 041035Z AUTO 00000KT 10SM CLR 25/25 A2999 RMK AO2 T02470247

Closest aviation forecast (TAF) to Meyer Field

Closest forecast is Sugar Land Regional Airport, 15.9 nm (29.5 km) N. Retrieved 2020/08/04 06:22 UTC (4 hours ago):

TAF KSGR 040520Z 0406/0506 VRB05KT P6SM SCT100 BKN250 FM042100 VRB06KT P6SM VCTS SCT050CB SCT250 FM050100 VRB05KT P6SM SCT070 BKN120 FM050400 VRB03KT P6SM SCT250